Time;durP1;ratioP1;P1;durP2;ratioP2;P2;SDS_P1;SDS_P2;PMS_P1;PMS_P2;Temp;Humidity;BMP_temperature;BMP_pressure;BME280_temperature;BME280_humidity;BME280_pressure;Samples;Min_cycle;Max_cycle;Signal;HPM_P1;HPM_P2
2021/11/24 00:00:24;;;;;;;82.63;75.82;;;;;;;;;;4970230;28;20030;-72
2021/11/24 00:02:50;;;;;;;715.08;575.63;;;;;;;;;;4982920;28;20573;-74
2021/11/24 00:05:16;;;;;;;743.45;557.45;;;;;;;;;;4977506;28;20484;-73
2021/11/24 00:07:43;;;;;;;661.95;476.70;;;;;;;;;;4978457;28;20035;-74
2021/11/24 00:10:10;;;;;;;650.60;459.30;;;;;;;;;;4981084;28;20125;-73
2021/11/24 00:12:36;;;;;;;674.50;450.30;;;;;;;;;;4990480;28;19941;-73
2021/11/24 00:15:02;;;;;;;;;;;;;;;;;;4996783;28;19957;-74
2021/11/24 00:17:28;;;;;;;69.23;65.50;;;;;;;;;;4997212;28;20873;-72
2021/11/24 00:19:54;;;;;;;;;;;;;;;;;;4969165;28;20762;-74
2021/11/24 00:22:20;;;;;;;;;;;;;;;;;;4976738;28;19980;-74
2021/11/24 00:24:46;;;;;;;;;;;;;;;;;;4981169;28;19949;-74
2021/11/24 00:27:12;;;;;;;;;;;;;;;;;;4971813;28;19945;-74
2021/11/24 00:29:38;;;;;;;;;;;;;;;;;;4976068;28;19948;-74
2021/11/24 00:32:04;;;;;;;283.90;257.20;;;;;;;;;;4984782;28;20402;-74
2021/11/24 00:34:30;;;;;;;68.38;64.68;;;;;;;;;;4975406;28;20380;-73
2021/11/24 00:36:56;;;;;;;70.13;66.07;;;;;;;;;;4974958;28;20376;-73
2021/11/24 00:39:22;;;;;;;69.07;65.13;;;;;;;;;;4969917;28;20476;-72
2021/11/24 00:41:48;;;;;;;70.25;66.60;;;;;;;;;;4969103;28;20088;-73
2021/11/24 00:44:14;;;;;;;71.30;67.22;;;;;;;;;;4988671;28;20036;-73
2021/11/24 00:46:40;;;;;;;70.10;66.30;;;;;;;;;;4978431;28;20395;-73
2021/11/24 00:49:08;;;;;;;70.18;66.38;;;;;;;;;;4981836;28;20031;-73
2021/11/24 00:51:34;;;;;;;69.57;65.63;;;;;;;;;;4983053;28;20443;-72
2021/11/24 00:54:00;;;;;;;67.03;63.13;;;;;;;;;;4978718;28;20509;-73
2021/11/24 00:56:26;;;;;;;;;;;;;;;;;;4972033;28;20524;-74
2021/11/24 00:58:52;;;;;;;;;;;;;;;;;;4975487;28;20008;-74
2021/11/24 01:01:18;;;;;;;;;;;;;;;;;;4972462;28;20355;-74
2021/11/24 01:03:44;;;;;;;;;;;;;;;;;;4978149;28;20567;-74
2021/11/24 01:06:10;;;;;;;;;;;;;;;;;;4972332;28;20365;-74
2021/11/24 01:08:36;;;;;;;;;;;;;;;;;;4973215;28;19914;-74
2021/11/24 01:11:02;;;;;;;;;;;;;;;;;;4982237;28;19917;-74
2021/11/24 01:13:27;;;;;;;;;;;;;;;;;;4982137;28;19952;-74
2021/11/24 01:15:53;;;;;;;;;;;;;;;;;;4979090;28;19992;-74
2021/11/24 01:18:21;;;;;;;;;;;;;;;;;;4965694;28;19974;-74
2021/11/24 01:20:47;;;;;;;;;;;;;;;;;;4992675;28;19936;-74
2021/11/24 01:23:13;;;;;;;;;;;;;;;;;;4982275;28;20382;-74
2021/11/24 01:25:39;;;;;;;;;;;;;;;;;;5009031;28;19909;-74
2021/11/24 01:28:05;;;;;;;;;;;;;;;;;;4981698;28;20540;-74
2021/11/24 01:30:31;;;;;;;;;;;;;;;;;;4997166;28;20060;-74
2021/11/24 01:32:57;;;;;;;;;;;;;;;;;;5002289;28;19909;-74
2021/11/24 01:35:23;;;;;;;;;;;;;;;;;;4994212;28;19949;-74
2021/11/24 01:37:49;;;;;;;;;;;;;;;;;;4984133;28;20417;-74
2021/11/24 01:40:15;;;;;;;;;;;;;;;;;;4997576;28;19952;-74
2021/11/24 01:42:41;;;;;;;;;;;;;;;;;;4984299;28;20004;-74
2021/11/24 01:45:07;;;;;;;;;;;;;;;;;;4995195;28;19976;-74
2021/11/24 01:47:33;;;;;;;;;;;;;;;;;;4995369;28;19945;-74
2021/11/24 01:49:59;;;;;;;;;;;;;;;;;;5001817;28;20421;-74
2021/11/24 01:52:25;;;;;;;;;;;;;;;;;;4998060;28;19989;-74
2021/11/24 01:54:51;;;;;;;;;;;;;;;;;;4972646;28;19960;-74
2021/11/24 01:57:17;;;;;;;;;;;;;;;;;;4996701;28;19921;-74
2021/11/24 01:59:43;;;;;;;;;;;;;;;;;;5000872;28;19964;-74
2021/11/24 02:02:08;;;;;;;;;;;;;;;;;;5000834;28;20433;-74
2021/11/24 02:04:34;;;;;;;;;;;;;;;;;;4986639;28;20386;-74
2021/11/24 02:07:00;;;;;;;;;;;;;;;;;;4991530;28;20375;-74
2021/11/24 02:09:26;;;;;;;;;;;;;;;;;;4999736;28;19913;-74
2021/11/24 02:11:52;;;;;;;688.22;557.30;;;;;;;;;;4995063;28;20410;-74
2021/11/24 02:14:18;;;;;;;;;;;;;;;;;;4990054;28;20030;-73
2021/11/24 02:16:49;;;;;;;69.27;64.47;;;;;;;;;;4992786;28;20451;-72
2021/11/24 02:19:15;;;;;;;;;;;;;;;;;;4998750;28;20310;-74
2021/11/24 02:21:41;;;;;;;;;;;;;;;;;;4999687;28;19913;-74
2021/11/24 02:24:07;;;;;;;65.28;60.25;;;;;;;;;;4995276;28;20433;-72
2021/11/24 02:26:33;;;;;;;521.43;468.63;;;;;;;;;;4996593;28;20029;-73
2021/11/24 02:28:59;;;;;;;232.52;188.57;;;;;;;;;;4974524;28;20000;-72
2021/11/24 02:31:26;;;;;;;67.30;62.38;;;;;;;;;;4976315;28;20038;-72
2021/11/24 02:33:56;;;;;;;720.60;586.20;;;;;;;;;;4994078;28;20018;-74
2021/11/24 02:36:24;;;;;;;762.07;554.40;;;;;;;;;;5003299;28;20021;-73
2021/11/24 02:38:50;;;;;;;72.65;66.15;;;;;;;;;;4990278;28;19914;-72
2021/11/24 02:41:16;;;;;;;;;;;;;;;;;;5002927;28;20030;-73
2021/11/24 02:43:42;;;;;;;718.90;513.40;;;;;;;;;;4970994;28;24089;-73
2021/11/24 02:46:08;;;;;;;682.00;452.30;;;;;;;;;;4995808;28;19913;-73
2021/11/24 02:48:34;;;;;;;619.75;353.95;;;;;;;;;;4973985;28;19912;-74
2021/11/24 02:51:00;;;;;;;655.28;376.08;;;;;;;;;;4979725;28;20664;-73
2021/11/24 02:53:35;;;;;;;643.67;352.92;;;;;;;;;;4988765;28;20030;-74
2021/11/24 02:56:01;;;;;;;601.17;334.85;;;;;;;;;;5005043;28;20030;-73
2021/11/24 02:58:28;;;;;;;151.38;137.85;;;;;;;;;;4972757;28;20517;-72
2021/11/24 03:00:55;;;;;;;67.68;62.05;;;;;;;;;;5006235;28;20061;-72
2021/11/24 03:03:21;;;;;;;67.00;61.50;;;;;;;;;;4988770;28;20057;-72
2021/11/24 03:05:47;;;;;;;71.82;66.10;;;;;;;;;;5000203;28;20018;-72
2021/11/24 03:08:13;;;;;;;70.95;64.95;;;;;;;;;;4980177;28;20030;-72
2021/11/24 03:10:39;;;;;;;79.00;71.75;;;;;;;;;;4989754;28;20030;-73
2021/11/24 03:13:06;;;;;;;259.80;234.20;;;;;;;;;;4983937;28;20026;-73
2021/11/24 03:15:32;;;;;;;129.82;103.95;;;;;;;;;;4997897;28;20034;-73
2021/11/24 03:17:58;;;;;;;79.75;72.20;;;;;;;;;;4990895;28;20129;-73
2021/11/24 03:20:27;;;;;;;215.38;158.15;;;;;;;;;;4991786;28;20050;-72
2021/11/24 03:22:53;;;;;;;76.55;69.22;;;;;;;;;;4991939;28;20030;-72
2021/11/24 03:25:19;;;;;;;741.92;465.50;;;;;;;;;;4997509;28;20022;-74
2021/11/24 03:27:45;;;;;;;605.60;463.70;;;;;;;;;;4989846;28;20642;-73
2021/11/24 03:30:14;;;;;;;73.90;65.32;;;;;;;;;;4980662;28;20451;-72
2021/11/24 03:32:40;;;;;;;320.63;202.60;;;;;;;;;;4998954;28;20034;-73
2021/11/24 03:35:07;;;;;;;122.47;97.40;;;;;;;;;;4996295;28;20112;-72
2021/11/24 03:37:33;;;;;;;72.78;65.13;;;;;;;;;;4991520;28;20030;-72
2021/11/24 03:39:59;;;;;;;69.78;62.88;;;;;;;;;;4987000;28;20558;-73
2021/11/24 03:42:25;;;;;;;71.07;63.72;;;;;;;;;;4999684;28;20893;-73
2021/11/24 03:44:51;;;;;;;75.65;67.63;;;;;;;;;;4992715;28;20014;-73
2021/11/24 03:47:18;;;;;;;71.00;62.65;;;;;;;;;;4994988;28;20402;-73
2021/11/24 03:49:44;;;;;;;173.27;143.32;;;;;;;;;;4990194;28;20554;-73
2021/11/24 03:52:10;;;;;;;68.82;52.30;;;;;;;;;;4975776;28;20037;-74
2021/11/24 03:54:36;;;;;;;735.22;482.30;;;;;;;;;;4994321;28;20101;-73
2021/11/24 03:57:02;;;;;;;63.40;53.97;;;;;;;;;;4998877;28;20093;-72
2021/11/24 03:59:29;;;;;;;447.55;284.25;;;;;;;;;;4970078;28;20031;-74
2021/11/24 04:01:55;;;;;;;112.20;102.10;;;;;;;;;;5006124;28;20028;-73
2021/11/24 04:04:21;;;;;;;613.35;329.75;;;;;;;;;;5006609;28;20603;-74
2021/11/24 04:06:47;;;;;;;239.60;157.40;;;;;;;;;;4991982;28;20626;-73
2021/11/24 04:09:13;;;;;;;635.43;384.67;;;;;;;;;;4996964;28;20060;-73
2021/11/24 04:11:39;;;;;;;79.32;63.25;;;;;;;;;;4987432;28;20026;-73
2021/11/24 04:14:05;;;;;;;77.13;61.75;;;;;;;;;;5008121;28;20423;-73
2021/11/24 04:16:31;;;;;;;83.32;64.95;;;;;;;;;;4990192;28;20640;-73
2021/11/24 04:19:00;;;;;;;72.18;59.95;;;;;;;;;;4984521;28;20042;-74
2021/11/24 04:21:26;;;;;;;74.63;60.78;;;;;;;;;;5006450;28;20069;-73
2021/11/24 04:23:52;;;;;;;75.28;60.03;;;;;;;;;;5003039;28;20026;-72
2021/11/24 04:26:18;;;;;;;187.95;113.57;;;;;;;;;;4994382;28;20085;-73
2021/11/24 04:28:44;;;;;;;119.60;80.10;;;;;;;;;;4993354;28;20026;-73
2021/11/24 04:31:10;;;;;;;74.90;61.75;;;;;;;;;;4998139;28;19910;-73
2021/11/24 04:33:37;;;;;;;84.15;63.83;;;;;;;;;;5001878;28;20152;-73
2021/11/24 04:36:03;;;;;;;118.05;76.43;;;;;;;;;;4972857;28;20026;-72
2021/11/24 04:38:29;;;;;;;83.60;65.07;;;;;;;;;;4998164;28;20129;-73
2021/11/24 04:40:56;;;;;;;201.85;102.75;;;;;;;;;;4995596;28;20026;-73
2021/11/24 04:43:27;;;;;;;80.18;65.63;;;;;;;;;;4979377;28;21283;-73
2021/11/24 04:45:53;;;;;;;75.35;65.60;;;;;;;;;;4988682;28;20030;-72
2021/11/24 04:48:19;;;;;;;82.25;68.97;;;;;;;;;;4992551;28;20038;-72
2021/11/24 04:50:45;;;;;;;80.55;68.78;;;;;;;;;;4995893;28;20105;-72
2021/11/24 04:53:12;;;;;;;84.00;70.55;;;;;;;;;;4976891;28;20113;-72
2021/11/24 04:55:38;;;;;;;83.22;74.57;;;;;;;;;;4990818;28;20038;-72
2021/11/24 04:58:04;;;;;;;81.28;73.15;;;;;;;;;;4996507;28;20080;-72
2021/11/24 05:00:30;;;;;;;86.43;77.47;;;;;;;;;;4979599;28;20511;-72
2021/11/24 05:02:56;;;;;;;90.20;81.25;;;;;;;;;;4975052;28;20026;-72
2021/11/24 05:05:27;;;;;;;88.68;79.38;;;;;;;;;;4973956;28;20524;-72
2021/11/24 05:07:53;;;;;;;108.38;87.15;;;;;;;;;;4987962;28;20419;-72
2021/11/24 05:10:20;;;;;;;92.32;71.88;;;;;;;;;;4989389;28;20031;-72
2021/11/24 05:12:46;;;;;;;159.23;104.32;;;;;;;;;;4970741;28;20030;-73
2021/11/24 05:15:19;;;;;;;85.43;76.00;;;;;;;;;;4993421;28;20022;-72
2021/11/24 05:17:47;;;;;;;85.20;75.95;;;;;;;;;;4971807;28;20030;-72
2021/11/24 05:20:17;;;;;;;85.10;74.80;;;;;;;;;;4973493;28;20043;-72
2021/11/24 05:22:44;;;;;;;83.20;74.30;;;;;;;;;;4992814;28;20023;-72
2021/11/24 05:25:10;;;;;;;87.45;78.30;;;;;;;;;;4988764;28;20027;-72
2021/11/24 05:27:36;;;;;;;82.97;73.97;;;;;;;;;;4997101;28;20038;-72
2021/11/24 05:30:02;;;;;;;87.85;74.50;;;;;;;;;;5002723;28;20022;-72
2021/11/24 05:32:28;;;;;;;85.45;73.25;;;;;;;;;;4977917;28;20026;-72
2021/11/24 05:34:54;;;;;;;78.38;70.18;;;;;;;;;;4992580;28;20117;-73
2021/11/24 05:37:20;;;;;;;118.25;85.30;;;;;;;;;;4972093;28;20488;-74
2021/11/24 05:39:46;;;;;;;82.85;74.38;;;;;;;;;;4992804;28;20021;-73
2021/11/24 05:42:12;;;;;;;85.28;76.22;;;;;;;;;;4993388;28;20077;-73
2021/11/24 05:44:39;;;;;;;87.00;78.38;;;;;;;;;;4998508;28;20019;-72
2021/11/24 05:47:11;;;;;;;83.90;75.57;;;;;;;;;;4995008;28;20022;-72
2021/11/24 05:49:38;;;;;;;84.88;76.53;;;;;;;;;;4974028;28;20030;-72
2021/11/24 05:52:04;;;;;;;84.75;74.40;;;;;;;;;;4986513;28;20082;-72
2021/11/24 05:54:30;;;;;;;84.30;75.82;;;;;;;;;;5000868;28;20093;-72
2021/11/24 05:56:56;;;;;;;84.15;75.65;;;;;;;;;;4976453;28;20023;-72
2021/11/24 05:59:22;;;;;;;81.82;73.85;;;;;;;;;;4989548;28;20113;-72
2021/11/24 06:01:49;;;;;;;82.40;74.47;;;;;;;;;;4983070;28;20029;-72
2021/11/24 06:04:15;;;;;;;84.07;75.85;;;;;;;;;;4981846;28;20034;-72
2021/11/24 06:06:41;;;;;;;86.22;77.80;;;;;;;;;;4975230;28;20070;-72
2021/11/24 06:09:07;;;;;;;91.57;82.70;;;;;;;;;;4994672;28;20057;-72
2021/11/24 06:11:34;;;;;;;91.03;81.82;;;;;;;;;;4989881;28;20061;-72
2021/11/24 06:14:00;;;;;;;90.88;81.85;;;;;;;;;;4994295;28;20414;-72
2021/11/24 06:16:26;;;;;;;83.50;75.43;;;;;;;;;;4990394;28;20042;-72
2021/11/24 06:18:52;;;;;;;82.03;73.80;;;;;;;;;;4989025;28;20058;-72
2021/11/24 06:21:20;;;;;;;814.10;607.20;;;;;;;;;;4991856;28;20026;-74
2021/11/24 06:26:23;;;;;;;475.00;430.05;;;;;;;;;;2715109;26;20066;-75
2021/11/24 06:28:49;;;;;;;626.22;468.02;;;;;;;;;;4947302;28;20027;-75
2021/11/24 06:31:15;;;;;;;81.70;73.90;;;;;;;;;;4951256;28;20582;-76
2021/11/24 06:33:41;;;;;;;308.02;278.15;;;;;;;;;;4950417;28;20027;-76
2021/11/24 06:36:08;;;;;;;427.00;382.48;;;;;;;;;;4952099;28;20054;-76
2021/11/24 06:38:34;;;;;;;533.17;478.00;;;;;;;;;;4946082;28;20646;-76
2021/11/24 06:41:00;;;;;;;90.28;81.60;;;;;;;;;;4949067;28;20027;-76
2021/11/24 06:43:26;;;;;;;615.33;501.27;;;;;;;;;;4953462;28;20031;-76
2021/11/24 06:45:52;;;;;;;625.75;510.88;;;;;;;;;;4951357;28;20027;-75
2021/11/24 06:48:18;;;;;;;682.92;510.60;;;;;;;;;;4947558;28;20031;-76
2021/11/24 06:50:44;;;;;;;536.30;431.60;;;;;;;;;;4949434;28;20049;-75
2021/11/24 06:53:10;;;;;;;697.75;483.10;;;;;;;;;;4949749;28;20030;-75
2021/11/24 06:55:36;;;;;;;529.28;472.38;;;;;;;;;;4950690;28;20034;-76
2021/11/24 06:58:02;;;;;;;582.20;474.85;;;;;;;;;;4946636;28;20114;-76
2021/11/24 07:00:28;;;;;;;648.00;485.48;;;;;;;;;;4933707;28;20027;-75
2021/11/24 07:02:55;;;;;;;677.40;481.25;;;;;;;;;;4932507;29;20027;-76
2021/11/24 07:05:21;;;;;;;786.05;553.55;;;;;;;;;;4951588;28;20031;-76
2021/11/24 07:07:47;;;;;;;754.95;487.85;;;;;;;;;;4945973;28;20031;-76
2021/11/24 07:10:13;;;;;;;222.32;196.60;;;;;;;;;;4950753;28;20038;-75
2021/11/24 07:12:39;;;;;;;97.05;88.03;;;;;;;;;;4931275;28;20030;-75
2021/11/24 07:15:06;;;;;;;437.70;335.23;;;;;;;;;;4951514;28;20026;-76
2021/11/24 07:17:32;;;;;;;540.85;431.73;;;;;;;;;;4951844;28;20031;-75
2021/11/24 07:20:00;;;;;;;722.47;472.17;;;;;;;;;;4955424;28;20054;-76
2021/11/24 07:22:26;;;;;;;378.63;346.45;;;;;;;;;;4955396;28;20023;-76
2021/11/24 07:24:53;;;;;;;467.48;418.02;;;;;;;;;;4955414;28;20047;-75
2021/11/24 07:27:19;;;;;;;500.52;448.50;;;;;;;;;;4952573;28;20433;-76
2021/11/24 07:29:45;;;;;;;656.38;489.95;;;;;;;;;;4952016;28;20395;-75
2021/11/24 07:32:11;;;;;;;579.83;483.00;;;;;;;;;;4954685;28;20510;-75
2021/11/24 07:34:37;;;;;;;760.95;512.20;;;;;;;;;;4956037;28;20027;-76
2021/11/24 07:37:03;;;;;;;761.20;506.42;;;;;;;;;;4938380;29;19950;-77
2021/11/24 07:39:31;;;;;;;743.22;475.10;;;;;;;;;;4953143;28;20031;-75
2021/11/24 07:41:57;;;;;;;656.65;459.60;;;;;;;;;;4954125;28;20102;-77
2021/11/24 07:44:23;;;;;;;745.53;493.60;;;;;;;;;;4955447;28;20031;-77
2021/11/24 07:46:49;;;;;;;751.85;490.75;;;;;;;;;;4953923;28;20369;-75
2021/11/24 07:49:15;;;;;;;769.97;553.90;;;;;;;;;;4952914;28;20072;-75
2021/11/24 07:51:41;;;;;;;750.63;491.35;;;;;;;;;;4953465;28;20054;-76
2021/11/24 07:54:08;;;;;;;738.72;458.23;;;;;;;;;;4953194;28;20027;-75
2021/11/24 07:56:34;;;;;;;628.00;428.00;;;;;;;;;;4954800;28;20050;-76
2021/11/24 07:59:00;;;;;;;617.30;438.50;;;;;;;;;;4954796;28;20039;-75
2021/11/24 08:01:26;;;;;;;563.83;441.85;;;;;;;;;;4954811;28;20039;-75
2021/11/24 08:03:52;;;;;;;500.95;447.38;;;;;;;;;;4953940;28;20050;-76
2021/11/24 08:06:18;;;;;;;473.08;432.08;;;;;;;;;;4937195;28;20034;-76
2021/11/24 08:08:44;;;;;;;509.50;452.73;;;;;;;;;;4951611;28;20042;-77
2021/11/24 08:11:10;;;;;;;430.40;396.38;;;;;;;;;;4953622;28;20027;-74
2021/11/24 08:13:36;;;;;;;374.75;347.40;;;;;;;;;;4952957;28;20038;-75
2021/11/24 08:16:02;;;;;;;476.10;427.88;;;;;;;;;;4953739;28;20024;-75
2021/11/24 08:18:28;;;;;;;744.20;496.55;;;;;;;;;;4951078;28;20155;-75
2021/11/24 08:20:54;;;;;;;768.60;508.33;;;;;;;;;;4951469;28;20513;-76
2021/11/24 08:23:20;;;;;;;766.47;500.15;;;;;;;;;;4952458;28;20482;-77
2021/11/24 08:25:47;;;;;;;747.40;459.95;;;;;;;;;;4951621;28;20046;-76
2021/11/24 08:28:13;;;;;;;717.15;453.00;;;;;;;;;;4946355;28;20027;-76
2021/11/24 08:30:39;;;;;;;747.05;460.10;;;;;;;;;;4952331;28;21484;-76
2021/11/24 08:33:05;;;;;;;686.17;439.85;;;;;;;;;;4953667;28;20227;-76
2021/11/24 08:35:31;;;;;;;746.92;441.77;;;;;;;;;;4950264;28;20526;-77
2021/11/24 08:37:57;;;;;;;702.20;454.02;;;;;;;;;;4950982;28;20053;-76
2021/11/24 08:40:23;;;;;;;654.58;456.35;;;;;;;;;;4952520;28;20074;-75
2021/11/24 08:42:49;;;;;;;599.70;448.83;;;;;;;;;;4952405;28;20031;-76
2021/11/24 08:45:16;;;;;;;674.67;469.77;;;;;;;;;;4953903;28;20106;-76
2021/11/24 08:47:42;;;;;;;653.63;481.15;;;;;;;;;;4951295;28;20114;-76
2021/11/24 08:50:11;;;;;;;716.05;458.35;;;;;;;;;;4937113;28;20086;-76
2021/11/24 08:52:37;;;;;;;688.83;459.20;;;;;;;;;;4953247;28;20410;-76
2021/11/24 08:55:04;;;;;;;778.30;527.28;;;;;;;;;;4935689;29;20039;-76
2021/11/24 08:57:30;;;;;;;708.78;493.67;;;;;;;;;;4952690;28;20035;-76
2021/11/24 08:59:56;;;;;;;656.65;504.88;;;;;;;;;;4951152;28;20110;-76
2021/11/24 09:02:28;;;;;;;513.80;458.25;;;;;;;;;;4953042;28;20035;-75
2021/11/24 09:04:54;;;;;;;689.65;483.08;;;;;;;;;;4952214;28;20087;-76
2021/11/24 09:07:20;;;;;;;785.13;530.88;;;;;;;;;;4935064;29;20042;-76
2021/11/24 09:09:46;;;;;;;715.90;494.15;;;;;;;;;;4947473;28;20032;-77
2021/11/24 09:12:12;;;;;;;260.45;239.82;;;;;;;;;;4951481;28;20019;-76
2021/11/24 09:14:38;;;;;;;566.63;437.40;;;;;;;;;;4950492;28;20030;-76
2021/11/24 09:17:04;;;;;;;251.50;229.45;;;;;;;;;;4952576;28;20503;-76
2021/11/24 09:19:30;;;;;;;92.40;71.68;;;;;;;;;;4950542;28;20106;-76
2021/11/24 09:21:56;;;;;;;585.95;466.73;;;;;;;;;;4953146;28;20030;-77
2021/11/24 09:24:26;;;;;;;378.40;345.23;;;;;;;;;;4953788;28;20150;-76
2021/11/24 09:27:02;;;;;;;91.35;73.25;;;;;;;;;;4951428;28;20042;-76
2021/11/24 09:29:28;;;;;;;100.53;78.50;;;;;;;;;;4947043;28;20027;-78
2021/11/24 09:31:55;;;;;;;103.38;81.53;;;;;;;;;;4949851;28;20597;-77
2021/11/24 09:34:22;;;;;;;98.47;80.35;;;;;;;;;;4953574;28;20449;-77
2021/11/24 09:36:48;;;;;;;109.10;82.28;;;;;;;;;;4953279;28;20098;-76
2021/11/24 09:39:14;;;;;;;492.27;409.70;;;;;;;;;;4951088;28;20581;-76
2021/11/24 09:41:44;;;;;;;571.75;480.05;;;;;;;;;;4951510;28;20106;-76
2021/11/24 09:44:10;;;;;;;364.33;334.50;;;;;;;;;;4951451;28;20431;-76
2021/11/24 09:46:37;;;;;;;120.40;106.95;;;;;;;;;;4953012;28;20110;-76
2021/11/24 09:49:04;;;;;;;646.50;462.80;;;;;;;;;;4950779;28;20031;-77
2021/11/24 09:51:31;;;;;;;498.00;425.30;;;;;;;;;;4958752;28;20375;-76
2021/11/24 09:54:00;;;;;;;99.28;86.63;;;;;;;;;;4950621;28;20035;-75
2021/11/24 09:56:27;;;;;;;97.72;87.47;;;;;;;;;;4949866;28;20118;-76
2021/11/24 09:58:53;;;;;;;103.22;92.70;;;;;;;;;;4951466;28;20502;-77
2021/11/24 10:01:19;;;;;;;100.85;90.30;;;;;;;;;;4948638;28;20027;-76
2021/11/24 10:03:45;;;;;;;565.60;508.17;;;;;;;;;;4948758;28;20027;-77
2021/11/24 10:06:11;;;;;;;649.22;550.38;;;;;;;;;;4952074;28;20037;-77
2021/11/24 10:08:37;;;;;;;106.38;95.45;;;;;;;;;;4944093;28;20035;-77
2021/11/24 10:11:03;;;;;;;283.15;256.13;;;;;;;;;;4949266;28;20023;-77
2021/11/24 10:13:30;;;;;;;108.47;97.43;;;;;;;;;;4948557;28;20027;-77
2021/11/24 10:15:57;;;;;;;606.95;546.25;;;;;;;;;;4948508;28;20026;-77
2021/11/24 10:18:30;;;;;;;486.08;442.45;;;;;;;;;;4948763;28;20398;-76
2021/11/24 10:20:58;;;;;;;695.08;545.10;;;;;;;;;;4951543;28;20115;-77
2021/11/24 10:23:26;;;;;;;785.22;559.05;;;;;;;;;;4950908;28;20035;-77
2021/11/24 10:25:52;;;;;;;806.17;572.65;;;;;;;;;;4942089;29;20118;-77
2021/11/24 10:28:26;;;;;;;814.85;600.35;;;;;;;;;;4943654;28;20106;-77
2021/11/24 10:30:55;;;;;;;824.70;653.45;;;;;;;;;;4947176;28;20053;-77
2021/11/24 10:33:22;;;;;;;813.15;590.53;;;;;;;;;;4948455;28;20118;-77
2021/11/24 10:36:07;;;;;;;801.92;582.42;;;;;;;;;;4950964;28;20027;-78
2021/11/24 10:38:41;;;;;;;663.70;552.70;;;;;;;;;;4948274;28;20406;-78
2021/11/24 10:41:08;;;;;;;782.97;551.00;;;;;;;;;;4951170;28;20095;-78
2021/11/24 10:43:45;;;;;;;779.17;540.15;;;;;;;;;;4949826;28;20033;-77
2021/11/24 10:46:14;;;;;;;784.70;601.80;;;;;;;;;;4948735;28;20042;-77
2021/11/24 10:48:40;;;;;;;;;;;;;;;;;;4945667;28;20296;-78
2021/11/24 10:51:24;;;;;;;712.95;570.15;;;;;;;;;;4950345;28;20300;-77
2021/11/24 10:54:09;;;;;;;673.80;544.83;;;;;;;;;;4946646;28;20031;-76
2021/11/24 10:56:55;;;;;;;721.30;536.10;;;;;;;;;;4943164;28;20035;-76
2021/11/24 10:59:21;;;;;;;753.95;560.90;;;;;;;;;;4942334;28;20037;-77
2021/11/24 11:01:47;;;;;;;748.93;555.87;;;;;;;;;;4947947;28;20235;-77
2021/11/24 11:04:13;;;;;;;768.80;560.65;;;;;;;;;;4946608;28;24065;-77
2021/11/24 11:06:41;;;;;;;751.50;532.92;;;;;;;;;;4945910;28;20234;-77
2021/11/24 11:09:08;;;;;;;570.20;504.10;;;;;;;;;;4942315;28;20032;-77
2021/11/24 11:11:35;;;;;;;512.63;469.30;;;;;;;;;;4945176;28;20127;-76
2021/11/24 11:14:25;;;;;;;708.70;510.02;;;;;;;;;;4947129;28;20015;-76
2021/11/24 11:16:55;;;;;;;559.72;502.63;;;;;;;;;;4930924;29;20043;-77
2021/11/24 11:19:37;;;;;;;648.95;555.60;;;;;;;;;;4947699;28;20055;-77
2021/11/24 11:22:03;;;;;;;734.22;549.03;;;;;;;;;;4949069;28;20023;-77
2021/11/24 11:24:29;;;;;;;727.90;537.45;;;;;;;;;;4948148;28;20050;-76
2021/11/24 11:26:56;;;;;;;777.85;543.63;;;;;;;;;;4893366;29;1081991;-77
2021/11/24 11:29:22;;;;;;;771.78;506.17;;;;;;;;;;4928989;29;20054;-75
2021/11/24 11:31:49;;;;;;;757.25;556.50;;;;;;;;;;4950615;28;20043;-78
2021/11/24 11:34:15;;;;;;;628.58;553.53;;;;;;;;;;4947619;28;20383;-77
2021/11/24 11:36:44;;;;;;;835.67;584.63;;;;;;;;;;4951236;28;20031;-77
2021/11/24 11:39:10;;;;;;;785.80;560.75;;;;;;;;;;4945482;28;20418;-77
2021/11/24 11:41:38;;;;;;;811.67;554.42;;;;;;;;;;4949764;28;20039;-77
2021/11/24 11:44:06;;;;;;;817.75;554.17;;;;;;;;;;4950672;28;20565;-77
2021/11/24 11:46:33;;;;;;;640.17;522.92;;;;;;;;;;4949913;28;20115;-78
2021/11/24 11:49:07;;;;;;;650.70;505.13;;;;;;;;;;4946744;28;20054;-77
2021/11/24 11:51:37;;;;;;;534.00;481.70;;;;;;;;;;4946203;28;20077;-77
2021/11/24 11:54:04;;;;;;;373.15;342.98;;;;;;;;;;4930551;29;20065;-78
2021/11/24 11:56:31;;;;;;;139.35;110.55;;;;;;;;;;4949687;28;20506;-78
2021/11/24 11:58:59;;;;;;;145.15;111.70;;;;;;;;;;4927923;29;20043;-78
2021/11/24 12:01:27;;;;;;;512.85;452.92;;;;;;;;;;4946000;28;20027;-78
2021/11/24 12:04:07;;;;;;;151.20;111.28;;;;;;;;;;4954191;28;20457;-78
2021/11/24 12:06:35;;;;;;;140.55;104.15;;;;;;;;;;4947134;28;20038;-78
2021/11/24 12:09:07;;;;;;;140.38;111.50;;;;;;;;;;4947654;28;20118;-78
2021/11/24 12:11:52;;;;;;;244.55;188.40;;;;;;;;;;4948919;28;20047;-78
2021/11/24 12:14:36;;;;;;;127.15;109.15;;;;;;;;;;4952893;28;20461;-78
2021/11/24 12:17:22;;;;;;;139.55;106.15;;;;;;;;;;4951916;28;20054;-76
2021/11/24 12:19:48;;;;;;;139.65;106.75;;;;;;;;;;4945440;28;20027;-77
2021/11/24 12:22:14;;;;;;;304.92;249.02;;;;;;;;;;4951700;28;20031;-77
2021/11/24 12:24:41;;;;;;;735.17;579.07;;;;;;;;;;4954143;28;20034;-76
2021/11/24 12:27:07;;;;;;;810.15;604.55;;;;;;;;;;4953415;28;19961;-76
2021/11/24 12:29:43;;;;;;;697.10;611.33;;;;;;;;;;4949691;28;20023;-77
2021/11/24 12:32:10;;;;;;;613.38;546.72;;;;;;;;;;4950821;28;20082;-76
2021/11/24 12:34:46;;;;;;;687.15;576.80;;;;;;;;;;4953665;28;20197;-77
2021/11/24 12:37:22;;;;;;;538.38;486.55;;;;;;;;;;4952832;28;20398;-77
2021/11/24 12:39:49;;;;;;;127.97;104.85;;;;;;;;;;4950623;28;20023;-77
2021/11/24 12:42:16;;;;;;;218.65;200.60;;;;;;;;;;4953366;28;20438;-77
2021/11/24 12:44:50;;;;;;;160.15;144.73;;;;;;;;;;4953350;28;20051;-76
2021/11/24 12:47:16;;;;;;;116.45;103.68;;;;;;;;;;4936656;29;20453;-76
2021/11/24 12:49:42;;;;;;;114.20;102.40;;;;;;;;;;4949831;28;20561;-76
2021/11/24 12:52:08;;;;;;;112.68;101.40;;;;;;;;;;4953658;28;20113;-77
2021/11/24 12:54:34;;;;;;;107.32;97.15;;;;;;;;;;4951678;28;20510;-78
2021/11/24 12:57:01;;;;;;;623.40;492.95;;;;;;;;;;4949621;28;20037;-76
2021/11/24 12:59:35;;;;;;;809.47;588.20;;;;;;;;;;4948143;28;20360;-77
2021/11/24 13:02:05;;;;;;;783.67;544.90;;;;;;;;;;4936413;29;20072;-76
2021/11/24 13:04:34;;;;;;;795.10;566.70;;;;;;;;;;4951976;28;20374;-76
2021/11/24 13:07:00;;;;;;;792.03;584.80;;;;;;;;;;4952754;28;20033;-76
2021/11/24 13:09:31;;;;;;;784.20;553.47;;;;;;;;;;4949650;28;20454;-76
2021/11/24 13:12:01;;;;;;;793.25;570.00;;;;;;;;;;4953035;28;20027;-76
2021/11/24 13:14:38;;;;;;;714.78;573.28;;;;;;;;;;4951847;28;20521;-76
2021/11/24 13:17:09;;;;;;;710.95;539.85;;;;;;;;;;4953362;28;20035;-77
2021/11/24 13:19:36;;;;;;;600.13;543.30;;;;;;;;;;4949827;28;20510;-77
2021/11/24 13:22:04;;;;;;;729.55;563.30;;;;;;;;;;4952951;28;20363;-76
2021/11/24 13:24:30;;;;;;;697.50;554.88;;;;;;;;;;4952857;28;20379;-76
2021/11/24 13:26:57;;;;;;;779.30;590.95;;;;;;;;;;4947808;28;20051;-76
2021/11/24 13:29:25;;;;;;;610.70;555.97;;;;;;;;;;4930103;28;20064;-76
2021/11/24 13:31:52;;;;;;;675.70;576.55;;;;;;;;;;4953843;28;20027;-76
2021/11/24 13:34:25;;;;;;;767.08;550.50;;;;;;;;;;4935105;29;20031;-76
2021/11/24 13:36:51;;;;;;;598.75;531.30;;;;;;;;;;4952650;28;20662;-76
2021/11/24 13:39:17;;;;;;;620.25;552.97;;;;;;;;;;4949702;28;20107;-76
2021/11/24 13:41:43;;;;;;;634.58;554.85;;;;;;;;;;4952247;28;20055;-76
2021/11/24 13:44:09;;;;;;;759.05;581.92;;;;;;;;;;4950966;28;20032;-76
2021/11/24 13:46:41;;;;;;;544.85;489.45;;;;;;;;;;4949987;28;20049;-76
2021/11/24 13:49:22;;;;;;;644.45;576.85;;;;;;;;;;4932203;29;20506;-76
2021/11/24 13:51:50;;;;;;;593.30;534.60;;;;;;;;;;4934922;29;20027;-76
2021/11/24 13:54:19;;;;;;;633.65;534.17;;;;;;;;;;4952491;28;20323;-76
2021/11/24 13:56:46;;;;;;;526.35;472.08;;;;;;;;;;4944893;28;20031;-76
2021/11/24 13:59:14;;;;;;;644.70;530.75;;;;;;;;;;4949317;28;20023;-76
2021/11/24 14:01:47;;;;;;;584.20;528.53;;;;;;;;;;4952231;28;20028;-77
2021/11/24 14:04:20;;;;;;;402.13;370.45;;;;;;;;;;4951144;28;20051;-76
2021/11/24 14:06:50;;;;;;;662.45;540.58;;;;;;;;;;4951714;28;20023;-76
2021/11/24 14:09:22;;;;;;;750.22;558.92;;;;;;;;;;4948679;28;20019;-76
2021/11/24 14:11:52;;;;;;;758.20;549.33;;;;;;;;;;4951698;28;20055;-76
2021/11/24 14:14:18;;;;;;;516.03;464.40;;;;;;;;;;4951971;28;20039;-77
2021/11/24 14:16:52;;;;;;;700.10;538.78;;;;;;;;;;4951693;28;20030;-76
2021/11/24 14:19:18;;;;;;;611.97;552.58;;;;;;;;;;4948360;28;20032;-76